Terminal Aerodrome Forecast
Issued by NWS

Home | Current Version | Previous Version | Graphics & Text | Print | Product List | Glossary On
Versions: 1 2 3 4 5 6 7 8 9 10 11 12 13 14 15 16 17 18 19 20 21
507
FTUS43 KICT 270232 AAA
TAFHUT
TAF AMD
KHUT 270232Z 2703/2724 21009KT 6SM -RA OVC080
     FM270400 28007KT P6SM VCSH OVC100
     FM270600 21007KT P6SM OVC200
     FM270900 26007KT P6SM BKN100 OVC200
     FM271100 29013KT P6SM SCT100=

USA.gov is the U.S. government's official web portal to all federal, state and local government web resources and services.